Time;durP1;ratioP1;P1;durP2;ratioP2;P2;SDS_P1;SDS_P2;PMS_P1;PMS_P2;Temp;Humidity;BMP_temperature;BMP_pressure;BME280_temperature;BME280_humidity;BME280_pressure;Samples;Min_cycle;Max_cycle;Signal;HPM_P1;HPM_P2
2023/03/17 00:01:55;;;;;;;3.50;2.40;;;;;;;7.56;66.11;100729.47;5068770;28;20488;-75
2023/03/17 00:04:26;;;;;;;4.68;2.40;;;;;;;7.55;65.78;100735.59;5066112;28;20041;-75
2023/03/17 00:06:53;;;;;;;5.53;2.53;;;;;;;7.55;65.59;100732.97;5067605;28;20072;-74
2023/03/17 00:09:21;;;;;;;4.47;2.47;;;;;;;7.55;65.88;100738.22;5065248;28;20035;-76
2023/03/17 00:11:49;;;;;;;4.75;2.13;;;;;;;7.56;65.87;100737.34;5067568;28;20123;-75
2023/03/17 00:14:18;;;;;;;3.33;2.20;;;;;;;7.57;65.75;100739.06;5065013;28;20049;-76
2023/03/17 00:16:51;;;;;;;6.22;2.60;;;;;;;7.61;65.64;100745.13;5066712;28;20047;-77
2023/03/17 00:19:31;;;;;;;3.67;2.30;;;;;;;7.63;65.50;100739.88;5060438;28;20091;-75
2023/03/17 00:22:00;;;;;;;3.17;2.15;;;;;;;7.65;65.38;100743.28;5066303;28;20119;-74
2023/03/17 00:24:28;;;;;;;3.97;2.65;;;;;;;7.63;65.66;100740.72;5065726;28;20037;-74
2023/03/17 00:26:55;;;;;;;5.32;2.22;;;;;;;7.66;65.49;100742.41;5067325;28;20120;-74
2023/03/17 00:29:24;;;;;;;5.35;2.05;;;;;;;7.67;65.35;100752.00;5066432;28;20425;-75
2023/03/17 00:31:52;;;;;;;3.92;2.17;;;;;;;7.68;65.18;100748.50;5067731;28;20045;-75
2023/03/17 00:34:22;;;;;;;4.90;2.13;;;;;;;7.65;65.38;100756.41;5065098;28;20041;-76
2023/03/17 00:36:50;;;;;;;3.63;2.10;;;;;;;7.62;65.26;100754.72;5064824;28;20056;-75
2023/03/17 00:39:18;;;;;;;2.92;1.98;;;;;;;7.58;65.41;100748.69;5065910;28;20121;-75
2023/03/17 00:41:46;;;;;;;6.82;2.25;;;;;;;7.54;65.55;100748.75;5064430;28;20057;-75
2023/03/17 00:44:16;;;;;;;3.40;1.95;;;;;;;7.50;65.66;100737.47;5066546;28;20037;-75
2023/03/17 00:46:43;;;;;;;4.43;2.25;;;;;;;7.46;65.60;100743.66;5066359;28;20041;-75
2023/03/17 00:49:22;;;;;;;3.60;2.38;;;;;;;7.42;65.57;100728.88;5063968;28;20052;-73
2023/03/17 00:51:50;;;;;;;3.80;2.38;;;;;;;7.40;65.79;100713.16;5058524;28;20450;-74
2023/03/17 00:54:19;;;;;;;4.47;2.13;;;;;;;7.39;65.75;100710.56;5078824;28;20052;-74
2023/03/17 00:56:49;;;;;;;3.10;2.30;;;;;;;7.37;65.81;100712.34;5065320;28;20045;-74
2023/03/17 00:59:25;;;;;;;3.60;2.30;;;;;;;7.38;65.70;100717.56;5066935;28;20040;-74
2023/03/17 01:01:52;;;;;;;5.78;2.30;;;;;;;7.36;65.54;100711.50;5067968;28;20984;-73
2023/03/17 01:04:20;;;;;;;4.47;2.20;;;;;;;7.36;65.50;100708.00;5066003;28;20326;-75
2023/03/17 01:06:49;;;;;;;3.28;2.20;;;;;;;7.34;65.58;100702.78;5065060;28;20037;-75
2023/03/17 01:09:24;;;;;;;4.47;2.22;;;;;;;7.34;65.33;100704.53;5061845;28;20533;-76
2023/03/17 01:11:53;;;;;;;3.35;2.13;;;;;;;7.33;65.53;100701.06;5070362;28;20045;-75
2023/03/17 01:14:22;;;;;;;3.22;1.85;;;;;;;7.34;65.67;100704.53;5065358;28;20075;-73
2023/03/17 01:16:49;;;;;;;3.70;1.80;;;;;;;7.30;65.70;100694.13;5066125;28;20497;-74
2023/03/17 01:19:16;;;;;;;6.60;2.08;;;;;;;7.31;65.56;100692.34;5064389;28;20048;-74
2023/03/17 01:21:45;;;;;;;3.85;2.00;;;;;;;7.29;65.60;100691.50;5064449;28;20497;-74
2023/03/17 01:24:13;;;;;;;1.95;1.52;;;;;;;7.28;65.74;100692.41;5065898;28;20044;-74
2023/03/17 01:26:40;;;;;;;4.32;1.98;;;;;;;7.26;65.91;100694.22;5065870;28;20575;-75
2023/03/17 01:29:08;;;;;;;5.47;2.10;;;;;;;7.22;65.94;100697.78;5065057;28;20040;-75
2023/03/17 01:31:35;;;;;;;2.58;1.92;;;;;;;7.20;66.08;100712.66;5066407;28;20043;-74
2023/03/17 01:34:05;;;;;;;4.43;2.10;;;;;;;7.18;66.24;100709.19;5061352;28;20096;-75
2023/03/17 01:36:33;;;;;;;4.20;2.20;;;;;;;7.17;66.11;100705.72;5047417;28;20057;-75
2023/03/17 01:39:00;;;;;;;3.47;1.90;;;;;;;7.19;66.17;100700.44;5058402;28;20029;-76
2023/03/17 01:41:27;;;;;;;3.20;2.13;;;;;;;7.20;66.64;100691.69;5061268;28;20501;-76
2023/03/17 01:43:54;;;;;;;4.50;2.25;;;;;;;7.20;66.31;100689.94;5062252;28;20048;-75
2023/03/17 01:46:34;;;;;;;2.83;2.20;;;;;;;7.21;66.15;100682.94;5065029;28;20052;-76
2023/03/17 01:49:30;;;;;;;3.75;2.45;;;;;;;7.21;66.12;100688.19;5061916;28;20049;-75
2023/03/17 01:52:06;;;;;;;5.18;2.53;;;;;;;7.19;66.26;100679.47;5062781;28;20045;-75
2023/03/17 01:54:44;;;;;;;3.28;2.30;;;;;;;7.18;66.18;100676.00;5055702;28;20045;-75
2023/03/17 01:57:27;;;;;;;3.60;2.38;;;;;;;7.14;66.32;100675.19;5064660;28;20045;-76
2023/03/17 02:00:18;;;;;;;5.63;2.50;;;;;;;7.13;66.35;100678.72;5080068;28;20052;-75
2023/03/17 02:02:50;;;;;;;4.03;2.40;;;;;;;7.12;66.49;100670.88;5066876;28;20596;-74
2023/03/17 02:05:24;;;;;;;4.38;2.50;;;;;;;7.13;66.66;100677.81;5060870;28;20048;-76
2023/03/17 02:07:54;;;;;;;3.88;2.33;;;;;;;7.13;66.45;100672.59;5064844;28;20132;-75
2023/03/17 02:10:28;;;;;;;4.32;2.38;;;;;;;7.13;66.47;100669.97;5063189;28;20581;-76
2023/03/17 02:13:01;;;;;;;4.32;2.50;;;;;;;7.10;66.36;100663.03;5062540;28;20119;-75
2023/03/17 02:15:45;;;;;;;4.27;2.67;;;;;;;7.07;66.53;100663.06;5062837;28;20138;-76
2023/03/17 02:18:14;;;;;;;8.02;2.58;;;;;;;7.00;66.67;100664.09;5063906;28;20254;-76
2023/03/17 02:20:46;;;;;;;3.47;2.50;;;;;;;6.94;66.77;100667.69;5064338;28;20064;-75
2023/03/17 02:23:21;;;;;;;5.93;2.53;;;;;;;6.87;66.92;100657.38;5064197;28;20100;-76
2023/03/17 02:25:52;;;;;;;3.50;2.30;;;;;;;6.83;66.89;100669.63;5065742;28;20262;-76
2023/03/17 02:28:28;;;;;;;4.07;2.67;;;;;;;6.79;67.34;100660.97;5063924;28;20040;-76
2023/03/17 02:30:56;;;;;;;4.25;2.33;;;;;;;6.76;67.36;100668.91;5065494;28;20072;-77
2023/03/17 02:33:23;;;;;;;4.65;2.30;;;;;;;6.74;67.47;100660.19;5059747;28;20045;-77
2023/03/17 02:35:53;;;;;;;4.90;2.35;;;;;;;6.74;67.55;100662.81;5067190;28;20041;-77
2023/03/17 02:38:21;;;;;;;4.63;2.40;;;;;;;6.73;67.65;100668.06;5067129;28;20037;-77
2023/03/17 02:40:48;;;;;;;5.93;2.63;;;;;;;6.68;67.76;100661.16;5067856;28;20040;-76
2023/03/17 02:43:15;;;;;;;4.57;2.50;;;;;;;6.67;67.79;100656.81;5066821;28;20123;-76
2023/03/17 02:45:42;;;;;;;4.45;2.40;;;;;;;6.70;67.91;100652.41;5065134;28;20049;-76
2023/03/17 02:48:11;;;;;;;3.67;2.40;;;;;;;6.70;67.90;100649.78;5065661;28;20045;-76
2023/03/17 02:50:38;;;;;;;5.45;2.65;;;;;;;6.74;68.17;100651.44;5069772;28;20041;-76
2023/03/17 02:53:06;;;;;;;4.80;2.67;;;;;;;6.76;68.07;100647.06;5063667;28;20532;-77
2023/03/17 02:55:33;;;;;;;3.33;2.42;;;;;;;6.79;68.20;100645.25;5066761;28;20518;-76
2023/03/17 02:58:02;;;;;;;3.50;2.15;;;;;;;6.83;67.97;100640.81;5067415;28;20047;-75
2023/03/17 03:00:29;;;;;;;6.60;2.63;;;;;;;6.84;67.81;100637.28;5069053;28;20071;-75
2023/03/17 03:02:56;;;;;;;3.97;2.40;;;;;;;6.87;67.94;100639.88;5067801;28;20037;-74
2023/03/17 03:05:24;;;;;;;6.80;2.63;;;;;;;6.88;67.77;100632.84;5067056;28;20073;-77
2023/03/17 03:07:51;;;;;;;4.40;2.22;;;;;;;6.90;67.81;100638.94;5067727;28;20041;-77
2023/03/17 03:10:18;;;;;;;4.78;2.15;;;;;;;6.90;67.67;100645.06;5068013;28;20079;-76
2023/03/17 03:12:46;;;;;;;3.92;2.35;;;;;;;6.91;67.47;100645.91;5053627;28;20489;-74
2023/03/17 03:15:13;;;;;;;4.75;2.40;;;;;;;6.90;67.69;100647.69;5066527;28;20037;-76
2023/03/17 03:17:40;;;;;;;4.25;2.40;;;;;;;6.89;67.59;100638.09;5066258;28;20094;-77
2023/03/17 03:20:10;;;;;;;3.33;2.20;;;;;;;6.87;67.65;100633.78;5064334;28;20577;-78
2023/03/17 03:22:37;;;;;;;4.90;2.15;;;;;;;6.84;67.61;100635.56;5065468;28;20120;-76
2023/03/17 03:25:07;;;;;;;7.25;2.20;;;;;;;6.83;67.63;100638.19;5064543;28;20516;-75
2023/03/17 03:27:34;;;;;;;3.10;2.08;;;;;;;6.83;67.50;100636.44;5067306;28;20041;-75
2023/03/17 03:30:03;;;;;;;4.63;2.20;;;;;;;6.81;67.84;100629.50;5067639;28;20052;-75
2023/03/17 03:32:30;;;;;;;4.38;2.33;;;;;;;6.82;67.68;100626.84;5057959;28;20045;-75
2023/03/17 03:34:57;;;;;;;3.45;2.03;;;;;;;6.81;67.63;100630.34;5068535;28;20045;-75
2023/03/17 03:37:24;;;;;;;4.60;2.30;;;;;;;6.82;67.67;100636.44;5067576;28;20060;-75
2023/03/17 03:39:51;;;;;;;5.60;2.50;;;;;;;6.82;67.75;100639.94;5068154;28;20455;-74
2023/03/17 03:42:18;;;;;;;3.13;2.05;;;;;;;6.81;67.72;100637.38;5068010;28;20041;-75
2023/03/17 03:44:45;;;;;;;3.30;2.20;;;;;;;6.79;67.77;100633.91;5068166;28;20068;-76
2023/03/17 03:47:12;;;;;;;5.95;2.10;;;;;;;6.79;67.73;100636.53;5066019;28;20045;-76
2023/03/17 03:49:40;;;;;;;2.78;2.03;;;;;;;6.76;67.70;100621.72;5066371;28;20569;-75
2023/03/17 03:52:07;;;;;;;3.65;1.90;;;;;;;6.77;67.81;100622.59;5067309;28;20741;-75
2023/03/17 03:54:34;;;;;;;4.55;1.90;;;;;;;6.75;67.96;100633.09;5067617;28;20777;-77
2023/03/17 03:57:01;;;;;;;3.22;1.85;;;;;;;6.73;67.90;100647.09;5068503;28;20171;-76
2023/03/17 03:59:29;;;;;;;3.75;2.10;;;;;;;6.71;68.05;100641.91;5067920;28;20072;-75
2023/03/17 04:01:56;;;;;;;4.38;2.25;;;;;;;6.67;67.89;100642.81;5056769;28;20045;-74
2023/03/17 04:04:23;;;;;;;2.88;1.85;;;;;;;6.63;67.93;100655.13;5061741;28;20048;-75
2023/03/17 04:06:50;;;;;;;3.65;2.13;;;;;;;6.59;68.16;100658.69;5064293;28;20041;-75
2023/03/17 04:09:17;;;;;;;6.35;2.20;;;;;;;6.57;68.07;100651.72;5067004;28;20053;-75
2023/03/17 04:11:44;;;;;;;5.47;2.45;;;;;;;6.54;68.15;100650.03;5069061;28;20043;-75
2023/03/17 04:14:12;;;;;;;7.10;2.42;;;;;;;6.53;68.33;100662.28;5067391;28;20041;-75
2023/03/17 04:16:39;;;;;;;4.80;2.30;;;;;;;6.51;68.54;100656.19;5065416;28;20052;-75
2023/03/17 04:19:10;;;;;;;5.80;2.33;;;;;;;6.48;68.48;100660.63;5066526;28;20434;-75
2023/03/17 04:21:37;;;;;;;4.90;2.30;;;;;;;6.45;68.49;100669.41;5065194;28;20076;-76
2023/03/17 04:24:04;;;;;;;5.25;2.42;;;;;;;6.41;68.62;100667.72;5067393;28;20051;-75
2023/03/17 04:26:31;;;;;;;5.93;2.40;;;;;;;6.39;69.05;100661.63;5065913;28;20535;-76
2023/03/17 04:28:59;;;;;;;4.53;2.17;;;;;;;6.37;69.04;100668.63;5068128;28;20037;-76
2023/03/17 04:31:26;;;;;;;6.32;2.72;;;;;;;6.35;69.26;100666.06;5067051;28;20130;-75
2023/03/17 04:33:53;;;;;;;4.70;2.47;;;;;;;6.32;69.24;100660.00;5068502;28;20048;-75
2023/03/17 04:36:22;;;;;;;4.78;2.33;;;;;;;6.28;69.42;100650.44;5064721;28;20057;-76
2023/03/17 04:38:49;;;;;;;4.80;2.38;;;;;;;6.24;69.65;100661.88;5066136;28;20037;-75
2023/03/17 04:41:16;;;;;;;5.57;2.53;;;;;;;6.20;69.79;100659.28;5066511;28;20487;-75
2023/03/17 04:43:44;;;;;;;5.07;2.83;;;;;;;6.18;70.00;100660.22;5066912;28;20041;-75
2023/03/17 04:46:12;;;;;;;3.55;2.38;;;;;;;6.14;70.12;100664.63;5049524;28;20492;-75
2023/03/17 04:48:40;;;;;;;5.38;2.60;;;;;;;6.13;70.26;100662.03;5053841;28;20045;-75
2023/03/17 04:51:07;;;;;;;6.32;2.80;;;;;;;6.10;70.31;100660.31;5064192;28;20051;-75
2023/03/17 04:53:37;;;;;;;4.35;2.40;;;;;;;6.08;70.22;100662.09;5062966;28;20048;-74
2023/03/17 04:56:05;;;;;;;6.93;2.83;;;;;;;6.09;70.75;100661.19;5052639;28;20045;-74
2023/03/17 04:58:32;;;;;;;5.47;2.65;;;;;;;6.08;70.75;100671.72;5066529;28;20045;-74
2023/03/17 05:01:01;;;;;;;5.00;2.72;;;;;;;6.10;70.77;100677.78;5065254;28;20760;-76
2023/03/17 05:03:29;;;;;;;5.13;3.15;;;;;;;6.10;70.87;100676.03;5066216;28;20535;-74
2023/03/17 05:05:58;;;;;;;5.55;2.80;;;;;;;6.11;70.83;100677.75;5066091;28;20035;-74
2023/03/17 05:08:27;;;;;;;4.95;2.92;;;;;;;6.12;71.20;100676.88;5066378;28;20087;-75
2023/03/17 05:10:56;;;;;;;5.70;3.03;;;;;;;6.13;71.12;100665.53;5065707;28;20049;-74
2023/03/17 05:13:25;;;;;;;6.45;2.85;;;;;;;6.13;71.20;100659.41;5063878;28;20052;-75
2023/03/17 05:15:54;;;;;;;7.13;2.83;;;;;;;6.17;71.04;100661.09;5063962;28;20084;-75
2023/03/17 05:18:24;;;;;;;4.47;2.80;;;;;;;6.18;71.04;100662.84;5064582;28;20041;-75
2023/03/17 05:20:51;;;;;;;4.95;2.70;;;;;;;6.18;71.02;100661.06;5066123;28;20053;-76
2023/03/17 05:23:19;;;;;;;8.98;2.83;;;;;;;6.18;70.95;100661.06;5066424;28;20461;-76
2023/03/17 05:25:47;;;;;;;5.93;2.65;;;;;;;6.17;71.12;100663.72;5066487;28;20626;-76
2023/03/17 05:28:14;;;;;;;4.85;2.58;;;;;;;6.15;70.93;100658.50;5060059;28;20049;-74
2023/03/17 05:30:42;;;;;;;5.07;2.72;;;;;;;6.15;70.99;100649.78;5066065;28;20045;-75
2023/03/17 05:33:09;;;;;;;9.73;2.88;;;;;;;6.14;71.01;100648.94;5064762;28;20040;-74
2023/03/17 05:35:36;;;;;;;4.30;3.00;;;;;;;6.11;71.04;100646.34;5061666;28;20809;-77
2023/03/17 05:38:03;;;;;;;7.38;3.00;;;;;;;6.11;71.02;100648.97;5063458;28;20750;-75
2023/03/17 05:40:31;;;;;;;6.10;2.65;;;;;;;6.10;71.07;100646.38;5067333;28;20037;-76
2023/03/17 05:42:58;;;;;;;7.18;3.00;;;;;;;6.08;71.12;100645.53;5066672;28;20056;-77
2023/03/17 05:45:25;;;;;;;5.90;2.95;;;;;;;6.06;71.26;100645.53;5065216;28;20056;-76
2023/03/17 05:47:52;;;;;;;5.50;3.17;;;;;;;6.06;71.19;100648.16;5061685;28;20566;-76
2023/03/17 05:50:20;;;;;;;10.85;3.10;;;;;;;6.08;71.17;100653.38;5063386;28;20107;-76
2023/03/17 05:52:47;;;;;;;3.88;2.80;;;;;;;6.09;71.29;100660.34;5060036;28;20041;-77
2023/03/17 05:55:14;;;;;;;7.53;3.25;;;;;;;6.11;71.36;100655.94;5061183;28;20529;-77
2023/03/17 05:57:42;;;;;;;8.50;3.20;;;;;;;6.16;71.42;100661.97;5063838;28;20041;-77
2023/03/17 06:00:11;;;;;;;5.93;3.40;;;;;;;6.19;71.48;100656.72;5064139;28;20124;-76
2023/03/17 06:02:39;;;;;;;6.60;2.85;;;;;;;6.28;72.00;100648.72;5061396;28;20636;-77
2023/03/17 06:05:07;;;;;;;5.13;2.83;;;;;;;6.41;72.09;100648.53;5064416;28;20076;-77
2023/03/17 06:07:35;;;;;;;5.80;3.10;;;;;;;6.52;71.84;100646.56;5060252;28;20037;-77
2023/03/17 06:10:19;;;;;;;11.82;3.40;;;;;;;6.59;71.46;100656.06;5060608;28;20063;-78
2023/03/17 06:12:46;;;;;;;4.47;2.80;;;;;;;6.65;71.65;100655.13;5063506;28;20051;-78
2023/03/17 06:15:15;;;;;;;5.57;2.63;;;;;;;6.75;71.57;100659.31;5064145;28;20536;-77
2023/03/17 06:17:43;;;;;;;9.07;3.50;;;;;;;6.79;71.10;100652.25;5059595;28;20812;-78
2023/03/17 06:20:11;;;;;;;6.93;2.90;;;;;;;6.84;71.02;100651.28;5058330;28;20219;-78
2023/03/17 06:22:39;;;;;;;5.05;2.80;;;;;;;6.96;70.85;100654.56;5064959;28;20047;-77
2023/03/17 06:25:26;;;;;;;12.48;3.15;;;;;;;7.05;70.13;100656.13;5065563;28;20041;-77
2023/03/17 06:27:55;;;;;;;9.45;3.05;;;;;;;7.06;69.86;100655.25;5063067;28;20048;-76
2023/03/17 06:30:22;;;;;;;6.38;3.20;;;;;;;7.03;69.96;100657.91;5063721;28;20056;-76
2023/03/17 06:32:49;;;;;;;6.82;3.30;;;;;;;7.01;69.88;100662.34;5062549;28;20091;-77
2023/03/17 06:35:16;;;;;;;5.30;3.00;;;;;;;6.98;69.82;100658.88;5063948;28;20049;-78
2023/03/17 06:37:44;;;;;;;8.30;3.20;;;;;;;6.95;69.83;100661.56;5064320;28;20068;-78
2023/03/17 06:40:12;;;;;;;13.40;3.47;;;;;;;6.99;69.80;100659.75;5063083;28;20103;-78
2023/03/17 06:42:39;;;;;;;7.93;3.40;;;;;;;7.03;69.53;100658.81;5058932;28;20384;-78
2023/03/17 06:45:08;;;;;;;5.15;2.90;;;;;;;7.09;69.62;100663.06;5060282;28;20041;-78
2023/03/17 06:47:36;;;;;;;6.60;2.80;;;;;;;7.15;69.63;100653.34;5062097;28;20064;-78
2023/03/17 06:50:04;;;;;;;15.82;2.97;;;;;;;7.23;69.56;100661.03;5063082;28;20045;-78
2023/03/17 06:52:31;;;;;;;4.47;2.58;;;;;;;7.32;69.21;100656.53;5063290;28;20130;-77
2023/03/17 06:54:58;;;;;;;8.60;2.50;;;;;;;7.38;68.93;100659.88;5064707;28;20060;-78
2023/03/17 06:57:25;;;;;;;8.30;3.03;;;;;;;7.43;68.70;100660.66;5063758;28;20446;-77
2023/03/17 06:59:53;;;;;;;5.32;2.92;;;;;;;7.50;68.57;100664.03;5065449;28;20465;-78
2023/03/17 07:02:20;;;;;;;5.43;2.90;;;;;;;7.55;68.39;100650.81;5064173;28;20049;-76
2023/03/17 07:04:47;;;;;;;8.93;3.13;;;;;;;7.60;68.40;100647.19;5063234;28;20052;-77
2023/03/17 07:07:15;;;;;;;8.40;3.03;;;;;;;7.67;67.82;100641.81;5064946;28;20045;-77
2023/03/17 07:09:42;;;;;;;12.07;3.00;;;;;;;7.72;68.06;100632.94;5065672;28;20053;-78
2023/03/17 07:12:09;;;;;;;9.18;2.83;;;;;;;7.78;67.99;100634.56;5063677;28;20041;-78
2023/03/17 07:14:36;;;;;;;5.25;2.65;;;;;;;7.86;68.17;100634.41;5065001;28;20073;-78
2023/03/17 07:17:05;;;;;;;7.40;3.00;;;;;;;7.97;67.78;100647.28;5064198;28;20071;-78
2023/03/17 07:19:33;;;;;;;7.80;3.50;;;;;;;8.05;67.43;100645.34;5064022;28;20405;-77
2023/03/17 07:22:01;;;;;;;6.10;3.15;;;;;;;8.14;67.28;100642.50;5066109;28;20045;-77
2023/03/17 07:24:28;;;;;;;5.63;3.35;;;;;;;8.23;67.07;100657.19;5069321;28;20067;-78
2023/03/17 07:26:55;;;;;;;9.90;3.17;;;;;;;8.30;66.64;100655.28;5068839;28;20037;-76
2023/03/17 07:29:22;;;;;;;5.45;3.40;;;;;;;8.39;66.39;100660.31;5068139;28;20037;-77
2023/03/17 07:31:49;;;;;;;7.25;3.30;;;;;;;8.48;66.23;100656.63;5082956;28;20052;-77
2023/03/17 07:34:16;;;;;;;5.32;3.13;;;;;;;8.57;66.11;100655.53;5067023;28;20253;-77
2023/03/17 07:36:43;;;;;;;16.13;4.78;;;;;;;8.63;65.95;100653.63;5067673;28;20371;-77
2023/03/17 07:39:11;;;;;;;6.35;3.65;;;;;;;8.72;65.66;100654.28;5067879;28;20045;-77
2023/03/17 07:41:38;;;;;;;5.55;3.72;;;;;;;8.78;65.54;100654.13;5068885;28;20067;-77
2023/03/17 07:44:10;;;;;;;4.82;3.30;;;;;;;8.84;65.57;100649.59;5067247;28;20049;-77
2023/03/17 07:46:37;;;;;;;5.07;3.00;;;;;;;8.93;65.54;100648.47;5046914;28;20163;-77
2023/03/17 07:49:05;;;;;;;6.15;2.72;;;;;;;9.01;65.24;100648.25;5047897;28;20037;-77
2023/03/17 07:51:32;;;;;;;7.45;3.38;;;;;;;9.09;64.61;100655.97;5047661;28;20131;-77
2023/03/17 07:54:02;;;;;;;14.48;3.00;;;;;;;9.14;64.47;100641.78;5048365;28;20046;-77
2023/03/17 07:56:31;;;;;;;8.32;3.05;;;;;;;9.22;64.39;100643.31;5047745;28;20054;-77
2023/03/17 07:58:58;;;;;;;6.07;2.85;;;;;;;9.28;63.95;100640.50;5047440;28;20555;-77
2023/03/17 08:01:26;;;;;;;8.43;4.55;;;;;;;9.32;63.82;100643.00;5047826;28;20095;-76
2023/03/17 08:03:55;;;;;;;14.77;5.55;;;;;;;9.36;63.77;100646.41;5047693;28;20042;-77
2023/03/17 08:06:26;;;;;;;10.60;5.13;;;;;;;9.42;63.65;100640.13;5049141;28;20625;-77
2023/03/17 08:08:54;;;;;;;15.63;3.83;;;;;;;9.46;63.01;100647.03;5068041;28;20509;-77
2023/03/17 08:11:22;;;;;;;22.23;7.70;;;;;;;9.49;63.32;100646.94;5067193;28;20045;-78
2023/03/17 08:13:49;;;;;;;26.38;10.25;;;;;;;9.58;63.16;100651.06;5067558;28;20079;-77
2023/03/17 08:16:16;;;;;;;21.38;6.90;;;;;;;9.64;63.11;100650.91;5067605;28;20049;-77
2023/03/17 08:18:44;;;;;;;22.02;8.68;;;;;;;9.70;62.92;100641.97;5067470;28;20073;-76
2023/03/17 08:21:11;;;;;;;14.70;5.97;;;;;;;9.73;62.21;100644.47;5067094;28;20041;-77
2023/03/17 08:23:41;;;;;;;16.50;7.20;;;;;;;9.75;62.71;100656.72;5067054;28;20592;-77
2023/03/17 08:26:09;;;;;;;13.52;6.65;;;;;;;9.80;62.78;100651.31;5067983;28;20099;-77
2023/03/17 08:28:36;;;;;;;14.35;6.82;;;;;;;9.85;62.45;100652.03;5068522;28;20049;-77
2023/03/17 08:31:16;;;;;;;8.13;4.00;;;;;;;9.87;62.23;100642.31;5074271;28;20048;-77
2023/03/17 08:33:51;;;;;;;9.10;3.30;;;;;;;9.91;62.03;100654.50;5066933;28;20328;-78
2023/03/17 08:36:19;;;;;;;18.63;11.27;;;;;;;9.95;62.27;100648.19;5065852;28;21539;-78
2023/03/17 08:38:47;;;;;;;10.80;6.00;;;;;;;10.03;62.06;100640.06;5063776;28;20441;-78
2023/03/17 08:41:22;;;;;;;5.82;3.33;;;;;;;10.12;61.34;100646.84;5064998;28;20049;-78
2023/03/17 08:43:50;;;;;;;8.85;4.80;;;;;;;10.20;61.98;100650.06;5069675;28;20139;-78
2023/03/17 08:46:31;;;;;;;10.57;6.25;;;;;;;10.33;61.82;100642.63;5067544;28;20584;-78
2023/03/17 08:48:59;;;;;;;7.30;5.53;;;;;;;10.45;61.59;100641.41;5066465;28;20048;-78
2023/03/17 08:51:33;;;;;;;9.00;4.05;;;;;;;10.54;61.47;100630.53;5065350;28;20151;-78
2023/03/17 08:54:02;;;;;;;5.78;3.80;;;;;;;10.67;61.54;100633.66;5066100;28;20036;-78
2023/03/17 08:56:29;;;;;;;9.38;4.32;;;;;;;10.79;61.19;100640.28;5066057;28;20564;-78
2023/03/17 08:58:56;;;;;;;9.60;4.18;;;;;;;10.92;61.03;100637.22;5073545;28;20143;-77
2023/03/17 09:01:23;;;;;;;12.65;5.50;;;;;;;11.00;60.91;100638.66;5066612;28;20045;-78
2023/03/17 09:03:53;;;;;;;23.52;7.28;;;;;;;11.15;60.71;100634.59;5066103;28;20514;-78
2023/03/17 09:06:21;;;;;;;9.02;5.20;;;;;;;11.31;60.56;100621.72;5065572;28;20041;-78
2023/03/17 09:08:54;;;;;;;8.35;3.20;;;;;;;11.48;58.88;100617.59;5067289;28;20406;-78
2023/03/17 09:11:28;;;;;;;7.70;5.32;;;;;;;11.61;59.50;100610.06;5066900;28;20045;-79
2023/03/17 09:13:55;;;;;;;10.63;4.35;;;;;;;11.74;59.40;100615.72;5085212;28;20049;-78
2023/03/17 09:16:24;;;;;;;6.28;2.78;;;;;;;11.86;58.80;100617.91;5086535;28;20067;-78
2023/03/17 09:18:52;;;;;;;4.97;3.10;;;;;;;11.98;58.52;100624.50;5087523;28;20401;-79
2023/03/17 09:21:20;;;;;;;10.45;3.55;;;;;;;12.09;58.33;100627.59;5082360;28;20484;-79
2023/03/17 09:23:47;;;;;;;17.95;4.45;;;;;;;12.19;58.51;100630.72;5066522;28;20049;-78
2023/03/17 09:26:14;;;;;;;13.32;5.07;;;;;;;12.32;58.52;100630.19;5065287;28;20048;-79
2023/03/17 09:28:41;;;;;;;14.10;5.82;;;;;;;12.42;58.79;100647.41;5084878;28;20563;-78
2023/03/17 09:31:11;;;;;;;11.50;5.20;;;;;;;12.56;57.82;100636.28;5071023;28;20048;-78
2023/03/17 09:33:40;;;;;;;15.88;6.43;;;;;;;12.64;58.49;100644.75;5065929;28;20053;-78
2023/03/17 09:36:09;;;;;;;19.15;9.20;;;;;;;12.74;58.22;100632.84;5066429;28;20049;-79
2023/03/17 09:38:37;;;;;;;14.38;7.03;;;;;;;12.82;57.85;100629.00;5066995;28;20040;-78
2023/03/17 09:41:22;;;;;;;11.45;5.97;;;;;;;12.90;56.79;100634.84;5064285;28;20041;-79
2023/03/17 09:44:27;;;;;;;;;;;;;;;12.94;57.56;100635.56;5066069;28;20053;-78
2023/03/17 09:47:44;;;;;;;14.53;6.30;;;;;;;13.10;57.92;100639.25;5052667;28;20385;-79
2023/03/17 09:50:27;;;;;;;16.45;5.57;;;;;;;13.29;57.21;100631.34;5064216;28;20278;-79
2023/03/17 09:52:57;;;;;;;8.25;5.28;;;;;;;13.45;56.83;100628.91;5067963;28;20134;-75
2023/03/17 09:55:30;;;;;;;9.57;4.40;;;;;;;13.64;55.88;100636.88;5065974;28;20576;-78
2023/03/17 09:57:59;;;;;;;12.00;3.77;;;;;;;13.77;56.10;100634.50;5078405;28;20122;-79
2023/03/17 10:00:29;;;;;;;8.00;4.68;;;;;;;13.90;56.43;100637.41;5066717;28;20080;-77
2023/03/17 10:02:58;;;;;;;10.43;5.30;;;;;;;14.04;56.01;100628.81;5065637;28;20072;-78
2023/03/17 10:05:30;;;;;;;18.95;5.07;;;;;;;14.15;55.73;100620.34;5065505;28;20041;-78
2023/03/17 10:08:20;;;;;;;9.23;5.72;;;;;;;14.24;54.69;100617.25;5082481;28;20127;-78
2023/03/17 10:11:27;;;;;;;8.55;3.90;;;;;;;14.30;55.33;100613.44;5065826;28;20049;-78
2023/03/17 10:14:03;;;;;;;8.70;3.70;;;;;;;14.33;55.15;100626.53;5063596;28;20533;-78
2023/03/17 10:16:40;;;;;;;15.90;4.18;;;;;;;14.45;55.55;100625.06;5064396;28;20047;-78
2023/03/17 10:19:34;;;;;;;8.75;4.32;;;;;;;14.67;54.36;100622.22;5064146;28;20067;-78
2023/03/17 10:22:27;;;;;;;8.63;4.20;;;;;;;14.96;54.14;100606.56;5061165;28;20043;-78
2023/03/17 10:25:03;;;;;;;4.07;2.72;;;;;;;15.23;52.92;100611.38;5062669;28;20059;-78
2023/03/17 10:27:36;;;;;;;5.65;2.80;;;;;;;15.42;53.12;100615.69;5066583;28;20395;-77
2023/03/17 10:30:14;;;;;;;9.23;3.40;;;;;;;15.63;52.82;100616.31;5066673;28;20045;-79
2023/03/17 10:32:42;;;;;;;10.48;2.40;;;;;;;15.89;50.95;100617.53;5064888;28;20462;-78
2023/03/17 10:35:11;;;;;;;4.10;2.28;;;;;;;16.09;50.26;100615.56;5069779;28;20037;-78
2023/03/17 10:37:38;;;;;;;5.38;2.15;;;;;;;16.26;50.04;100626.09;5057877;28;20065;-78
2023/03/17 10:40:19;;;;;;;16.58;3.00;;;;;;;16.49;50.96;100623.88;5066510;28;20041;-78
2023/03/17 10:42:53;;;;;;;4.68;1.92;;;;;;;16.72;49.48;100622.56;5064669;28;20052;-79
2023/03/17 10:45:28;;;;;;;;;;;;;;;16.85;48.85;100620.00;5051214;28;20041;-78
2023/03/17 10:47:58;;;;;;;6.72;2.38;;;;;;;16.98;49.44;100608.66;5065056;28;19984;-78
2023/03/17 10:50:38;;;;;;;4.93;2.00;;;;;;;17.16;49.34;100617.28;5065395;28;20044;-78
2023/03/17 10:53:09;;;;;;;15.93;2.65;;;;;;;17.32;49.60;100609.22;5065475;28;20142;-77
2023/03/17 10:55:36;;;;;;;7.20;2.25;;;;;;;17.42;47.44;100602.34;5071280;28;20037;-76
2023/03/17 10:58:16;;;;;;;3.30;2.08;;;;;;;17.50;47.47;100601.88;5090231;28;20086;-77
2023/03/17 11:01:21;;;;;;;4.43;2.03;;;;;;;17.56;46.18;100592.63;5089347;28;20090;-76
2023/03/17 11:03:49;;;;;;;10.57;2.55;;;;;;;17.53;46.19;100591.88;5064865;28;20116;-77
2023/03/17 11:06:29;;;;;;;18.45;3.13;;;;;;;17.60;47.09;100578.19;5068933;28;20110;-77
2023/03/17 11:09:08;;;;;;;10.02;2.90;;;;;;;17.66;47.04;100575.09;5069493;28;20068;-77
2023/03/17 11:11:45;;;;;;;6.13;2.40;;;;;;;17.73;47.28;100578.22;5066719;28;20124;-76
2023/03/17 11:14:17;;;;;;;27.92;3.35;;;;;;;17.75;46.52;100585.19;5062814;28;20045;-78
2023/03/17 11:16:56;;;;;;;5.30;2.13;;;;;;;17.69;46.44;100597.09;5070390;28;20037;-77
2023/03/17 11:20:04;;;;;;;55.85;5.15;;;;;;;17.65;47.09;100608.03;5070458;28;20037;-77
2023/03/17 11:22:45;;;;;;;10.73;2.38;;;;;;;17.67;47.59;100612.31;5065579;28;20057;-77
2023/03/17 11:25:18;;;;;;;21.35;3.90;;;;;;;17.76;48.11;100605.56;5048318;28;20636;-77
2023/03/17 11:28:04;;;;;;;8.25;3.15;;;;;;;17.77;48.54;100603.72;5054079;28;20045;-77
2023/03/17 11:30:38;;;;;;;11.85;2.75;;;;;;;17.81;48.19;100608.75;5048445;28;20089;-77
2023/03/17 11:33:33;;;;;;;;;;;;;;;17.76;48.12;100602.00;5056820;28;20124;-78
2023/03/17 11:36:25;;;;;;;6.28;2.33;;;;;;;17.74;48.77;100604.78;5067069;28;20063;-78
2023/03/17 11:38:58;;;;;;;6.75;2.72;;;;;;;17.73;48.19;100578.22;5064540;28;20041;-76
2023/03/17 11:41:49;;;;;;;7.82;2.35;;;;;;;17.76;48.55;100562.91;5068369;28;20505;-77
2023/03/17 11:44:47;;;;;;;6.38;2.40;;;;;;;17.89;48.56;100562.94;5066179;28;20106;-77
2023/03/17 11:47:37;;;;;;;8.20;2.78;;;;;;;18.06;48.75;100567.19;5067661;28;20037;-77